N63 weather

Public forecast

Using degrees Fahrenheit for public forecast. Weather courtesy of forecast.io.

Closest aviation weather report (METAR) to Meadow Brook Field

Closest report is Smith Reynolds Airport, 10.7 nm (19.8 km) SSW. Retrieved 2020/08/15 10:12 UTC (32 minutes ago):

KINT 151012Z AUTO 00000KT 10SM BKN006 BKN017 OVC022 22/22 A2993 RMK AO2 RAE12 P0002 T02220222

Closest aviation forecast (TAF) to Meadow Brook Field

Closest forecast is Smith Reynolds Airport, 10.7 nm (19.8 km) SSW. Retrieved 2020/08/15 06:48 UTC (4 hours ago):

TAF KINT 150545Z 1506/1606 07004KT P6SM SHRA SCT005 BKN012 OVC026 FM150900 06003KT 4SM BR VCSH OVC004 FM151500 06004KT 6SM BR SCT004 SCT008 OVC015 FM151800 05006KT 6SM SHRA BKN025 TEMPO 1520/1524 2SM -TSRA BKN015CB FM160300 03003KT 2SM BR OVC007